createdAt,value
2023-06-19T00:14:48.954Z,100.00
2023-06-19T00:17:17.946Z,100.00
2023-06-19T00:19:45.370Z,100.00
2023-06-19T00:22:12.201Z,100.00
2023-06-19T00:24:39.106Z,100.00
2023-06-19T00:27:06.871Z,100.00
2023-06-19T00:29:35.580Z,100.00
2023-06-19T00:32:02.651Z,100.00
2023-06-19T00:34:31.007Z,100.00
2023-06-19T00:37:00.710Z,100.00
2023-06-19T00:39:28.562Z,100.00
2023-06-19T00:41:57.849Z,100.00
2023-06-19T00:44:24.684Z,100.00
2023-06-19T00:46:53.042Z,100.00
2023-06-19T00:49:19.913Z,100.00
2023-06-19T00:51:46.968Z,100.00
2023-06-19T00:54:15.521Z,100.00
2023-06-19T00:56:42.318Z,100.00
2023-06-19T00:59:14.478Z,100.00
2023-06-19T01:01:42.761Z,100.00
2023-06-19T01:04:09.645Z,100.00
2023-06-19T01:06:52.820Z,100.00
2023-06-19T01:09:21.031Z,100.00
2023-06-19T01:11:51.986Z,100.00
2023-06-19T01:14:40.580Z,100.00
2023-06-19T01:17:07.877Z,100.00
2023-06-19T01:19:35.681Z,100.00
2023-06-19T01:22:05.363Z,100.00
2023-06-19T01:24:32.393Z,100.00
2023-06-19T01:27:01.760Z,100.00
2023-06-19T01:29:28.792Z,100.00
2023-06-19T01:32:11.685Z,100.00
2023-06-19T01:34:40.805Z,100.00
2023-06-19T01:37:08.754Z,100.00
2023-06-19T01:39:37.903Z,100.00
2023-06-19T01:42:05.760Z,100.00
2023-06-19T01:44:33.894Z,100.00
2023-06-19T01:47:00.785Z,100.00
2023-06-19T01:49:27.690Z,100.00
2023-06-19T01:51:54.516Z,100.00
2023-06-19T01:54:21.344Z,100.00
2023-06-19T01:56:48.736Z,100.00
2023-06-19T01:59:15.748Z,100.00
2023-06-19T02:01:42.605Z,100.00
2023-06-19T02:04:09.478Z,100.00
2023-06-19T02:06:37.684Z,100.00
2023-06-19T02:09:05.711Z,100.00
2023-06-19T02:11:33.429Z,100.00
2023-06-19T02:14:00.273Z,100.00
2023-06-19T02:16:27.138Z,100.00
2023-06-19T02:18:56.989Z,100.00
2023-06-19T02:21:24.349Z,100.00
2023-06-19T02:23:52.295Z,100.00
2023-06-19T02:26:19.252Z,100.00
2023-06-19T02:28:47.366Z,100.00
2023-06-19T02:31:14.118Z,100.00
2023-06-19T02:33:41.042Z,100.00
2023-06-19T02:36:07.834Z,100.00
2023-06-19T02:38:34.660Z,100.00
2023-06-19T02:41:04.454Z,100.00
2023-06-19T02:43:33.284Z,100.00
2023-06-19T02:46:00.150Z,100.00
2023-06-19T02:48:29.067Z,100.00
2023-06-19T02:50:56.589Z,100.00
2023-06-19T02:53:23.717Z,100.00
2023-06-19T02:55:50.529Z,100.00
2023-06-19T02:58:17.277Z,100.00
2023-06-19T03:00:44.801Z,100.00
2023-06-19T03:03:12.858Z,100.00
2023-06-19T03:05:39.837Z,100.00
2023-06-19T03:08:06.878Z,100.00
2023-06-19T03:10:33.958Z,100.00
2023-06-19T03:13:00.738Z,100.00
2023-06-19T03:15:27.675Z,100.00
2023-06-19T03:17:54.986Z,100.00
2023-06-19T03:20:23.996Z,100.00
2023-06-19T03:22:56.247Z,100.00
2023-06-19T03:25:24.670Z,100.00
2023-06-19T03:27:51.890Z,100.00
2023-06-19T03:30:19.935Z,100.00
2023-06-19T03:32:50.544Z,100.00
2023-06-19T03:35:41.869Z,100.00
2023-06-19T03:38:13.219Z,100.00
2023-06-19T03:40:40.444Z,100.00
2023-06-19T03:43:12.280Z,100.00
2023-06-19T03:45:39.611Z,100.00
2023-06-19T03:48:06.828Z,100.00
2023-06-19T03:50:34.749Z,100.00
2023-06-19T03:53:01.644Z,100.00
2023-06-19T03:55:28.556Z,100.00
2023-06-19T03:57:55.670Z,100.00
2023-06-19T04:00:24.009Z,100.00
2023-06-19T04:02:51.724Z,100.00
2023-06-19T04:05:20.780Z,100.00
2023-06-19T04:07:47.987Z,100.00
2023-06-19T04:10:16.206Z,100.00
2023-06-19T04:12:43.157Z,100.00
2023-06-19T04:15:11.816Z,100.00
2023-06-19T04:17:38.780Z,100.00
2023-06-19T04:20:20.739Z,100.00
2023-06-19T04:22:50.814Z,100.00
2023-06-19T04:25:17.874Z,100.00
2023-06-19T04:27:45.789Z,100.00
2023-06-19T04:30:13.112Z,100.00
2023-06-19T04:32:42.801Z,100.00
2023-06-19T04:35:10.732Z,100.00
2023-06-19T04:37:37.629Z,100.00
2023-06-19T04:40:05.455Z,100.00
2023-06-19T04:42:32.492Z,100.00
2023-06-19T04:45:00.781Z,100.00
2023-06-19T04:47:36.412Z,100.00
2023-06-19T04:50:11.008Z,100.00
2023-06-19T04:52:38.831Z,100.00
2023-06-19T04:55:12.200Z,100.00
2023-06-19T04:57:39.152Z,100.00
2023-06-19T05:00:11.399Z,100.00
2023-06-19T05:02:38.470Z,100.00
2023-06-19T05:05:05.947Z,100.00
2023-06-19T05:07:33.104Z,100.00
2023-06-19T05:10:02.236Z,100.00
2023-06-19T05:12:29.079Z,100.00
2023-06-19T05:14:57.316Z,100.00
2023-06-19T05:17:24.288Z,100.00
2023-06-19T05:19:53.657Z,100.00
2023-06-19T05:22:22.661Z,100.00
2023-06-19T05:24:49.712Z,100.00
2023-06-19T05:27:16.614Z,100.00
2023-06-19T05:51:43.738Z,100.00
2023-06-19T05:54:11.048Z,99.40
2023-06-19T05:56:38.898Z,100.00
2023-06-19T05:59:05.850Z,100.00
2023-06-19T06:01:33.099Z,100.00
2023-06-19T06:13:21.600Z,100.00
2023-06-19T06:15:48.611Z,100.00
2023-06-19T06:18:15.448Z,100.00
2023-06-19T06:20:42.880Z,100.00
2023-06-19T06:23:10.443Z,100.00
2023-06-19T06:25:37.397Z,100.00
2023-06-19T06:28:04.538Z,100.00
2023-06-19T06:30:32.263Z,100.00
2023-06-19T06:32:59.651Z,100.00
2023-06-19T06:35:27.017Z,100.00
2023-06-19T06:37:54.143Z,100.00
2023-06-19T06:45:56.944Z,100.00
2023-06-19T06:48:24.639Z,100.00
2023-06-19T06:50:57.429Z,100.00
2023-06-19T06:53:26.816Z,100.00
2023-06-19T06:55:53.857Z,100.00
2023-06-19T06:58:22.636Z,100.00
2023-06-19T07:00:52.559Z,100.00
2023-06-19T07:06:04.448Z,100.00
2023-06-19T07:08:32.003Z,100.00
2023-06-19T07:10:59.585Z,100.00
2023-06-19T07:13:26.837Z,100.00
2023-06-19T07:15:54.344Z,100.00
2023-06-19T07:18:22.881Z,100.00
2023-06-19T07:20:49.760Z,100.00
2023-06-19T07:23:16.819Z,100.00
2023-06-19T07:25:43.697Z,100.00
2023-06-19T07:28:10.686Z,100.00
2023-06-19T07:30:37.518Z,100.00
2023-06-19T07:33:04.770Z,100.00
2023-06-19T07:35:31.832Z,100.00
2023-06-19T07:37:59.091Z,100.00
2023-06-19T07:40:29.166Z,100.00
2023-06-19T07:42:56.258Z,100.00
2023-06-19T07:45:27.095Z,96.39
2023-06-19T07:48:00.518Z,100.00
2023-06-19T07:50:28.955Z,98.65
2023-06-19T07:52:56.174Z,100.00
2023-06-19T07:55:23.035Z,100.00
2023-06-19T07:57:49.926Z,100.00
2023-06-19T08:00:17.166Z,100.00
2023-06-19T08:02:44.127Z,100.00
2023-06-19T08:05:14.270Z,100.00
2023-06-19T08:07:41.591Z,100.00
2023-06-19T08:10:27.613Z,100.00
2023-06-19T08:12:54.812Z,100.00
2023-06-19T08:15:21.878Z,100.00
2023-06-19T08:17:48.767Z,100.00
2023-06-19T08:20:15.727Z,100.00
2023-06-19T08:22:42.712Z,100.00
2023-06-19T08:25:09.813Z,97.71
2023-06-19T08:27:36.953Z,98.52
2023-06-19T08:30:08.408Z,98.42
2023-06-19T08:32:38.453Z,96.61
2023-06-19T08:35:05.895Z,96.01
2023-06-19T08:37:33.055Z,90.51
2023-06-19T08:40:01.132Z,95.02
2023-06-19T08:42:28.879Z,96.60
2023-06-19T08:44:55.966Z,93.23
2023-06-19T08:47:23.027Z,90.48
2023-06-19T08:49:50.860Z,92.10
2023-06-19T08:52:21.192Z,90.83
2023-06-19T08:54:49.154Z,91.82
2023-06-19T08:57:18.739Z,92.96
2023-06-19T08:59:53.367Z,91.00
2023-06-19T09:02:22.297Z,93.87
2023-06-19T09:04:50.971Z,92.32
2023-06-19T09:07:33.333Z,92.71
2023-06-19T09:10:00.924Z,92.89
2023-06-19T09:12:35.965Z,89.32
2023-06-19T09:15:04.274Z,91.53
2023-06-19T09:17:31.718Z,90.36
2023-06-19T09:20:07.002Z,89.76
2023-06-19T09:22:34.932Z,90.06
2023-06-19T09:25:05.480Z,90.62
2023-06-19T09:27:35.886Z,89.25
2023-06-19T09:30:06.353Z,86.91
2023-06-19T09:32:38.014Z,89.08
2023-06-19T09:38:19.418Z,88.00
2023-06-19T09:40:48.976Z,87.23
2023-06-19T09:43:24.151Z,88.77
2023-06-19T09:48:56.759Z,88.47
2023-06-19T09:52:03.477Z,85.52
2023-06-19T09:54:31.666Z,85.81
2023-06-19T09:57:01.192Z,86.11
2023-06-19T09:59:29.558Z,83.32
2023-06-19T10:05:14.882Z,86.51
2023-06-19T10:10:56.855Z,88.47
2023-06-19T10:13:35.268Z,87.41
2023-06-19T10:16:06.097Z,82.45
2023-06-19T10:18:36.271Z,80.23
2023-06-19T10:21:03.488Z,81.57
2023-06-19T10:36:27.284Z,74.92
2023-06-19T10:38:58.429Z,76.96
2023-06-19T10:41:26.492Z,73.99
2023-06-19T10:44:11.086Z,77.55
2023-06-19T10:46:39.675Z,71.98
2023-06-19T10:49:08.513Z,66.82
2023-06-19T10:51:36.519Z,70.35
2023-06-19T11:03:37.871Z,68.69
2023-06-19T11:11:57.911Z,61.66
2023-06-19T11:18:07.838Z,61.19
2023-06-19T11:30:08.665Z,56.88
2023-06-19T11:32:42.376Z,52.75
2023-06-19T11:35:12.301Z,54.31
2023-06-19T11:37:44.457Z,52.74
2023-06-19T11:40:16.569Z,50.67
2023-06-19T12:01:16.908Z,47.38
2023-06-19T12:06:46.906Z,49.03
2023-06-19T12:09:13.947Z,48.77
2023-06-19T12:11:42.441Z,47.34
2023-06-19T12:14:09.713Z,46.70
2023-06-19T12:16:37.016Z,46.17
2023-06-19T12:19:04.343Z,48.55
2023-06-19T12:21:37.802Z,47.34
2023-06-19T12:24:08.723Z,47.62
2023-06-19T12:26:38.643Z,46.65
2023-06-19T12:29:07.431Z,46.14
2023-06-19T12:31:35.838Z,46.64
2023-06-19T12:34:13.500Z,46.55
2023-06-19T12:36:51.442Z,45.91
2023-06-19T12:39:24.490Z,45.78
2023-06-19T12:41:52.979Z,45.38
2023-06-19T12:44:20.215Z,44.69
2023-06-19T12:46:48.119Z,44.36
2023-06-19T12:49:15.032Z,45.41
2023-06-19T12:51:42.985Z,47.82
2023-06-19T12:54:10.750Z,48.13
2023-06-19T12:56:39.658Z,48.48
2023-06-19T12:59:06.454Z,47.67
2023-06-19T13:01:33.618Z,48.15
2023-06-19T13:04:00.604Z,48.62
2023-06-19T13:06:27.704Z,48.10
2023-06-19T13:08:57.112Z,47.65
2023-06-19T13:11:24.184Z,48.08
2023-06-19T13:13:51.205Z,46.11
2023-06-19T13:16:27.223Z,47.01
2023-06-19T13:19:07.324Z,46.40
2023-06-19T13:21:34.940Z,46.77
2023-06-19T13:24:01.940Z,46.59
2023-06-19T13:26:34.871Z,45.89
2023-06-19T13:29:02.017Z,46.28
2023-06-19T13:31:28.952Z,47.07
2023-06-19T13:33:56.327Z,45.87
2023-06-19T13:36:25.122Z,46.00
2023-06-19T13:38:52.993Z,45.49
2023-06-19T13:41:20.127Z,45.91
2023-06-19T13:43:47.237Z,46.51
2023-06-19T13:46:14.344Z,46.11
2023-06-19T13:48:41.275Z,45.00
2023-06-19T13:51:08.930Z,46.35
2023-06-19T13:53:35.723Z,47.13
2023-06-19T13:56:02.805Z,46.44
2023-06-19T13:58:31.275Z,47.04
2023-06-19T14:00:58.548Z,47.32
2023-06-19T14:03:26.002Z,48.11
2023-06-19T14:05:53.104Z,48.25
2023-06-19T14:08:19.951Z,48.58
2023-06-19T14:10:46.831Z,47.85
2023-06-19T14:13:15.043Z,48.61
2023-06-19T14:15:42.350Z,47.55
2023-06-19T14:18:09.670Z,47.85
2023-06-19T14:20:36.642Z,47.31
2023-06-19T14:23:06.639Z,46.72
2023-06-19T14:25:36.538Z,45.69
2023-06-19T14:28:09.730Z,46.80
2023-06-19T14:30:37.123Z,46.90
2023-06-19T14:33:04.638Z,49.70
2023-06-19T14:35:35.319Z,50.33
2023-06-19T14:38:02.684Z,49.23
2023-06-19T14:40:38.750Z,50.80
2023-06-19T14:43:08.239Z,51.62
2023-06-19T14:45:35.758Z,51.50
2023-06-19T14:48:03.756Z,51.75
2023-06-19T14:50:42.887Z,51.10
2023-06-19T14:53:10.008Z,50.70
2023-06-19T14:55:36.927Z,49.88
2023-06-19T14:58:07.139Z,50.75
2023-06-19T15:00:43.402Z,50.77
2023-06-19T15:03:13.766Z,54.39
2023-06-19T15:05:46.036Z,52.65
2023-06-19T15:08:22.531Z,51.74
2023-06-19T15:11:11.240Z,51.39
2023-06-19T15:13:51.820Z,50.95
2023-06-19T15:16:26.610Z,50.62
2023-06-19T15:18:58.109Z,49.57
2023-06-19T15:21:50.229Z,49.11
2023-06-19T15:24:17.320Z,49.04
2023-06-19T15:26:44.601Z,50.72
2023-06-19T15:29:13.314Z,48.56
2023-06-19T15:31:40.832Z,47.73
2023-06-19T15:34:09.714Z,48.79
2023-06-19T15:36:36.799Z,48.52
2023-06-19T15:39:04.197Z,49.83
2023-06-19T15:41:48.212Z,50.31
2023-06-19T15:44:22.633Z,49.40
2023-06-19T15:46:49.580Z,50.20
2023-06-19T15:49:16.719Z,51.14
2023-06-19T15:51:43.608Z,50.72
2023-06-19T15:54:13.157Z,49.79
2023-06-19T15:56:50.197Z,50.10
2023-06-19T15:59:17.463Z,49.65
2023-06-19T16:01:44.437Z,51.66
2023-06-19T16:04:11.742Z,52.11
2023-06-19T16:06:40.850Z,51.41
2023-06-19T16:09:08.158Z,51.17
2023-06-19T16:11:35.801Z,49.54
2023-06-19T16:14:20.422Z,50.42
2023-06-19T16:16:47.276Z,52.12
2023-06-19T16:19:14.086Z,50.77
2023-06-19T16:21:40.867Z,52.60
2023-06-19T16:24:08.700Z,51.72
2023-06-19T16:26:35.572Z,52.13
2023-06-19T16:29:02.897Z,50.69
2023-06-19T16:31:30.183Z,50.47
2023-06-19T16:33:56.984Z,49.55
2023-06-19T16:36:24.609Z,51.26
2023-06-19T16:38:51.426Z,51.33
2023-06-19T16:41:20.784Z,49.82
2023-06-19T16:43:47.888Z,49.29
2023-06-19T16:46:14.870Z,50.47
2023-06-19T16:48:41.725Z,51.64
2023-06-19T16:51:08.791Z,51.79
2023-06-19T16:53:36.084Z,51.38
2023-06-19T16:56:02.876Z,50.63
2023-06-19T16:58:29.924Z,50.83
2023-06-19T17:00:56.850Z,51.53
2023-06-19T17:03:24.321Z,50.25
2023-06-19T17:05:51.186Z,51.35
2023-06-19T17:08:18.195Z,51.72
2023-06-19T17:10:45.151Z,49.97
2023-06-19T17:13:12.027Z,52.83
2023-06-19T17:15:38.920Z,51.75
2023-06-19T17:18:07.429Z,51.93
2023-06-19T17:20:35.060Z,51.26
2023-06-19T17:23:01.938Z,50.66
2023-06-19T17:25:29.537Z,49.98
2023-06-19T17:27:56.965Z,51.51
2023-06-19T17:30:24.197Z,51.90
2023-06-19T17:32:51.628Z,51.00
2023-06-19T17:35:18.812Z,51.31
2023-06-19T17:37:45.774Z,51.42
2023-06-19T17:40:14.451Z,51.09
2023-06-19T17:42:41.973Z,49.80
2023-06-19T17:45:10.218Z,50.01
2023-06-19T17:47:37.236Z,50.40
2023-06-19T17:50:04.333Z,50.62
2023-06-19T17:52:31.201Z,52.80
2023-06-19T17:54:58.080Z,51.13
2023-06-19T17:57:25.089Z,51.65
2023-06-19T17:59:52.453Z,51.83
2023-06-19T18:02:19.395Z,51.92
2023-06-19T18:04:46.252Z,50.83
2023-06-19T18:07:13.104Z,49.64
2023-06-19T18:09:40.330Z,50.80
2023-06-19T18:12:07.292Z,50.34
2023-06-19T18:14:34.151Z,50.43
2023-06-19T18:17:04.743Z,50.29
2023-06-19T18:19:31.805Z,51.31
2023-06-19T18:21:58.619Z,51.09
2023-06-19T18:24:25.521Z,53.58
2023-06-19T18:26:52.379Z,53.57
2023-06-19T18:29:38.932Z,53.84
2023-06-19T18:32:09.475Z,52.59
2023-06-19T18:34:41.553Z,54.29
2023-06-19T18:37:08.612Z,54.51
2023-06-19T18:39:42.310Z,54.87
2023-06-19T18:42:14.883Z,53.83
2023-06-19T18:44:41.725Z,55.72
2023-06-19T18:47:08.655Z,53.08
2023-06-19T18:49:35.719Z,52.67
2023-06-19T18:52:03.356Z,52.58
2023-06-19T18:54:30.102Z,53.55
2023-06-19T18:56:57.549Z,54.77
2023-06-19T18:59:24.540Z,54.43
2023-06-19T19:01:51.844Z,55.16
2023-06-19T19:04:18.828Z,53.07
2023-06-19T19:06:45.634Z,54.74
2023-06-19T19:09:12.538Z,53.75
2023-06-19T19:11:39.550Z,54.25
2023-06-19T19:14:06.439Z,55.49
2023-06-19T19:16:33.220Z,55.51
2023-06-19T19:19:00.358Z,57.27
2023-06-19T19:21:27.208Z,57.04
2023-06-19T19:23:54.090Z,56.86
2023-06-19T19:26:21.084Z,60.12
2023-06-19T19:28:47.868Z,59.38
2023-06-19T19:31:15.390Z,57.09
2023-06-19T19:33:42.225Z,55.75
2023-06-19T19:36:09.352Z,59.24
2023-06-19T19:38:37.529Z,62.42
2023-06-19T19:41:04.408Z,64.90
2023-06-19T19:43:31.415Z,66.34
2023-06-19T19:45:58.257Z,69.17
2023-06-19T19:48:25.246Z,63.99
2023-06-19T19:50:51.977Z,73.15
2023-06-19T19:53:19.124Z,65.30
2023-06-19T19:55:45.797Z,63.23
2023-06-19T19:58:14.476Z,74.15
2023-06-19T20:00:49.728Z,73.72
2023-06-19T20:03:17.661Z,74.95
2023-06-19T20:05:44.648Z,73.93
2023-06-19T20:08:11.540Z,73.52
2023-06-19T20:10:38.573Z,77.16
2023-06-19T20:13:05.503Z,75.97
2023-06-19T20:15:32.364Z,74.86
2023-06-19T20:17:59.213Z,72.60
2023-06-19T20:20:26.769Z,76.94
2023-06-19T20:22:54.162Z,77.02
2023-06-19T20:25:21.816Z,78.04
2023-06-19T20:28:06.076Z,75.27
2023-06-19T20:30:34.645Z,75.90
2023-06-19T20:33:01.510Z,81.68
2023-06-19T20:35:28.382Z,79.74
2023-06-19T20:37:55.732Z,76.03
2023-06-19T20:40:23.545Z,75.51
2023-06-19T20:42:52.247Z,82.28
2023-06-19T20:45:19.928Z,85.17
2023-06-19T20:47:46.623Z,85.48
2023-06-19T20:50:15.288Z,85.44
2023-06-19T20:52:42.005Z,87.04
2023-06-19T20:55:09.470Z,84.35
2023-06-19T20:57:36.596Z,86.23
2023-06-19T21:00:10.651Z,86.20
2023-06-19T21:02:41.154Z,85.10
2023-06-19T21:05:09.966Z,82.88
2023-06-19T21:07:36.957Z,79.26
2023-06-19T21:10:04.965Z,78.17
2023-06-19T21:12:32.477Z,83.74
2023-06-19T21:14:59.320Z,87.16
2023-06-19T21:17:26.210Z,89.28
2023-06-19T21:19:54.549Z,89.70
2023-06-19T21:22:21.359Z,87.70
2023-06-19T21:24:48.234Z,84.32
2023-06-19T21:27:15.008Z,85.39
2023-06-19T21:29:43.687Z,89.47
2023-06-19T21:32:10.373Z,91.61
2023-06-19T21:34:37.217Z,93.97
2023-06-19T21:37:04.036Z,95.36
2023-06-19T21:39:30.782Z,98.60
2023-06-19T21:41:57.604Z,100.00
2023-06-19T21:44:24.477Z,100.00
2023-06-19T21:46:51.523Z,100.00
2023-06-19T21:49:18.691Z,100.00
2023-06-19T21:51:45.557Z,100.00
2023-06-19T21:54:12.303Z,100.00
2023-06-19T21:56:39.438Z,99.06
2023-06-19T21:59:07.973Z,99.49
2023-06-19T22:01:35.482Z,98.65
2023-06-19T22:04:03.391Z,100.00
2023-06-19T22:06:31.489Z,99.79
2023-06-19T22:09:01.264Z,100.00
2023-06-19T22:11:29.224Z,96.59
2023-06-19T22:13:57.538Z,95.76
2023-06-19T22:16:24.744Z,96.36
2023-06-19T22:18:51.578Z,96.72
2023-06-19T22:21:19.204Z,97.00
2023-06-19T22:23:46.128Z,94.66
2023-06-19T22:26:13.302Z,96.61
2023-06-19T22:28:53.994Z,98.52
2023-06-19T22:31:33.152Z,99.35
2023-06-19T22:34:07.405Z,99.73
2023-06-19T22:36:47.007Z,97.57
2023-06-19T22:39:22.959Z,100.00
2023-06-19T22:41:50.048Z,100.00
2023-06-19T22:44:16.898Z,100.00
2023-06-19T22:46:43.765Z,99.72
2023-06-19T22:49:14.940Z,98.98
2023-06-19T22:51:41.915Z,99.01
2023-06-19T22:54:08.720Z,100.00
2023-06-19T22:56:35.761Z,96.66
2023-06-19T22:59:02.970Z,94.71
2023-06-19T23:01:31.871Z,97.74
2023-06-19T23:03:58.768Z,97.27
2023-06-19T23:06:28.300Z,100.00
2023-06-19T23:08:55.167Z,100.00
2023-06-19T23:11:22.207Z,100.00
2023-06-19T23:13:48.957Z,100.00
2023-06-19T23:16:15.752Z,100.00
2023-06-19T23:18:42.439Z,100.00
2023-06-19T23:21:09.518Z,100.00
2023-06-19T23:23:37.673Z,100.00
2023-06-19T23:26:04.413Z,100.00
2023-06-19T23:28:32.876Z,100.00
2023-06-19T23:31:00.302Z,100.00
2023-06-19T23:33:31.235Z,100.00
2023-06-19T23:36:01.380Z,100.00
2023-06-19T23:38:31.925Z,100.00
2023-06-19T23:40:58.891Z,100.00
2023-06-19T23:43:26.071Z,100.00
2023-06-19T23:45:52.976Z,100.00
2023-06-19T23:48:22.674Z,100.00
2023-06-19T23:50:49.937Z,98.80
2023-06-19T23:53:16.876Z,95.09
2023-06-19T23:55:52.977Z,95.71
2023-06-19T23:58:23.475Z,96.17
